createdAt,value
2022-10-17T00:02:15.231Z,13.52
2022-10-17T00:05:03.674Z,13.45
2022-10-17T00:07:52.919Z,13.44
2022-10-17T00:10:42.369Z,13.46
2022-10-17T00:16:30.546Z,13.58
2022-10-17T00:19:18.633Z,13.47
2022-10-17T00:22:06.542Z,13.46
2022-10-17T00:24:54.391Z,13.55
2022-10-17T00:27:44.072Z,13.53
2022-10-17T00:30:33.019Z,13.63
2022-10-17T00:33:22.081Z,13.77
2022-10-17T00:36:28.603Z,13.77
2022-10-17T00:39:16.932Z,13.90
2022-10-17T00:42:05.487Z,13.76
2022-10-17T00:45:10.953Z,13.82
2022-10-17T00:48:08.662Z,13.70
2022-10-17T00:50:56.749Z,13.69
2022-10-17T00:53:44.939Z,13.73
2022-10-17T00:56:34.133Z,13.85
2022-10-17T00:59:23.228Z,13.85
2022-10-17T01:02:18.498Z,13.92
2022-10-17T01:05:07.962Z,14.05
2022-10-17T01:07:58.679Z,14.04
2022-10-17T01:11:13.236Z,14.08
2022-10-17T01:14:41.802Z,14.07
2022-10-17T01:18:01.144Z,14.05
2022-10-17T01:21:13.386Z,14.17
2022-10-17T01:24:49.276Z,14.21
2022-10-17T01:28:17.963Z,14.25
2022-10-17T01:31:18.030Z,14.23
2022-10-17T01:34:37.875Z,14.25
2022-10-17T01:37:36.666Z,14.19
2022-10-17T01:40:54.169Z,14.18
2022-10-17T01:43:51.361Z,14.17
2022-10-17T01:46:44.999Z,14.22
2022-10-17T01:49:38.051Z,14.28
2022-10-17T01:52:39.241Z,14.36
2022-10-17T01:55:34.160Z,14.37
2022-10-17T01:58:34.271Z,14.36
2022-10-17T02:01:25.384Z,14.32
2022-10-17T02:04:13.480Z,14.18
2022-10-17T02:07:10.333Z,14.10
2022-10-17T02:09:58.743Z,14.09
2022-10-17T02:13:21.075Z,14.02
2022-10-17T02:16:34.605Z,14.45
2022-10-17T02:19:50.317Z,14.19
2022-10-17T02:23:09.663Z,14.00
2022-10-17T02:26:22.067Z,13.64
2022-10-17T02:29:48.572Z,13.60
2022-10-17T02:33:17.206Z,13.43
2022-10-17T02:36:15.517Z,13.42
2022-10-17T02:39:05.559Z,13.52
2022-10-17T02:41:57.217Z,13.49
2022-10-17T02:44:47.145Z,13.44
2022-10-17T02:48:25.700Z,13.43
2022-10-17T02:51:25.615Z,13.41
2022-10-17T02:54:22.390Z,13.31
2022-10-17T02:57:24.685Z,13.33
2022-10-17T03:00:15.231Z,13.29
2022-10-17T03:03:31.268Z,13.25
2022-10-17T03:06:22.094Z,13.20
2022-10-17T03:09:13.984Z,13.28
2022-10-17T03:12:02.492Z,13.30
2022-10-17T03:14:50.532Z,13.41
2022-10-17T03:17:39.302Z,13.42
2022-10-17T03:20:27.381Z,13.39
2022-10-17T03:23:17.774Z,13.55
2022-10-17T03:26:08.762Z,13.79
2022-10-17T03:28:57.321Z,13.98
2022-10-17T03:31:45.684Z,13.88
2022-10-17T03:34:33.861Z,13.77
2022-10-17T03:37:21.819Z,13.89
2022-10-17T03:40:13.586Z,13.68
2022-10-17T03:43:05.359Z,13.63
2022-10-17T03:45:53.392Z,13.55
2022-10-17T03:48:41.388Z,13.38
2022-10-17T03:51:29.920Z,13.36
2022-10-17T03:54:20.470Z,13.53
2022-10-17T03:57:08.810Z,13.64
2022-10-17T03:59:57.393Z,13.65
2022-10-17T04:02:51.124Z,13.68
2022-10-17T04:05:39.134Z,13.56
2022-10-17T04:08:28.179Z,13.47
2022-10-17T04:11:20.033Z,13.41
2022-10-17T04:14:08.172Z,13.43
2022-10-17T04:16:59.283Z,13.06
2022-10-17T04:19:49.925Z,13.04
2022-10-17T04:22:40.929Z,13.36
2022-10-17T04:25:31.239Z,13.39
2022-10-17T04:28:21.790Z,13.17
2022-10-17T04:31:14.751Z,13.04
2022-10-17T04:34:02.725Z,12.99
2022-10-17T04:36:52.152Z,13.02
2022-10-17T04:39:40.003Z,13.00
2022-10-17T04:42:46.158Z,12.93
2022-10-17T04:45:34.235Z,12.99
2022-10-17T04:48:25.530Z,13.07
2022-10-17T04:51:21.797Z,13.22
2022-10-17T04:54:12.465Z,13.33
2022-10-17T04:57:00.716Z,13.42
2022-10-17T04:59:52.365Z,13.41
2022-10-17T05:02:40.515Z,13.18
2022-10-17T05:05:29.005Z,13.23
2022-10-17T05:08:17.476Z,13.17
2022-10-17T05:11:16.779Z,13.58
2022-10-17T05:14:08.567Z,13.51
2022-10-17T05:16:59.615Z,13.26
2022-10-17T05:19:54.413Z,13.21
2022-10-17T05:22:44.576Z,13.07
2022-10-17T05:25:36.572Z,13.06
2022-10-17T05:28:44.634Z,13.16
2022-10-17T05:31:40.262Z,13.17
2022-10-17T05:34:30.013Z,13.28
2022-10-17T05:37:20.915Z,13.29
2022-10-17T05:40:10.240Z,13.39
2022-10-17T05:42:58.554Z,13.50
2022-10-17T05:45:47.319Z,13.74
2022-10-17T05:48:35.742Z,13.74
2022-10-17T05:51:23.999Z,13.74
2022-10-17T05:54:12.658Z,13.98
2022-10-17T05:57:05.468Z,14.08
2022-10-17T05:59:59.385Z,14.15
2022-10-17T06:02:48.092Z,14.42
2022-10-17T06:05:36.312Z,14.58
2022-10-17T06:08:30.399Z,14.26
2022-10-17T06:11:19.110Z,14.10
2022-10-17T06:14:17.031Z,13.53
2022-10-17T06:17:12.113Z,13.15
2022-10-17T06:20:17.585Z,12.83
2022-10-17T06:23:13.914Z,12.78
2022-10-17T06:26:09.625Z,12.88
2022-10-17T06:29:00.875Z,13.06
2022-10-17T06:31:49.800Z,13.35
2022-10-17T06:34:46.125Z,13.46
2022-10-17T06:37:36.869Z,13.58
2022-10-17T06:40:25.831Z,13.72
2022-10-17T06:43:19.022Z,13.96
2022-10-17T06:46:07.845Z,15.27
2022-10-17T06:48:59.304Z,17.34
2022-10-17T06:51:56.442Z,17.12
2022-10-17T06:55:38.593Z,18.32
2022-10-17T06:59:02.534Z,18.96
2022-10-17T07:02:17.206Z,17.77
2022-10-17T08:05:23.390Z,22.77
2022-10-17T08:11:38.521Z,22.70
2022-10-17T08:42:09.507Z,21.12
2022-10-17T08:45:14.816Z,21.06
2022-10-17T08:48:15.002Z,20.59
2022-10-17T08:51:19.590Z,19.16
2022-10-17T08:54:48.492Z,20.91
2022-10-17T08:57:40.071Z,21.57
2022-10-17T09:00:32.570Z,19.52
2022-10-17T09:04:02.451Z,20.08
2022-10-17T09:15:11.864Z,19.83
2022-10-17T09:34:42.613Z,21.19
2022-10-17T09:37:46.635Z,21.21
2022-10-17T09:45:15.808Z,21.38
2022-10-17T09:49:03.634Z,22.07
2022-10-17T09:51:58.224Z,22.14
2022-10-17T10:00:38.904Z,21.97
2022-10-17T10:03:34.776Z,22.37
2022-10-17T10:07:30.291Z,22.89
2022-10-17T10:11:13.963Z,23.11
2022-10-17T10:14:26.994Z,23.25
2022-10-17T10:29:25.668Z,22.95
2022-10-17T10:35:07.094Z,23.70
2022-10-17T10:38:16.185Z,22.97
2022-10-17T10:41:18.030Z,23.79
2022-10-17T10:44:31.017Z,23.72
2022-10-17T10:47:35.470Z,23.92
2022-10-17T10:58:53.493Z,23.44
2022-10-17T11:02:24.502Z,24.35
2022-10-17T11:06:28.661Z,23.09
2022-10-17T11:09:53.682Z,22.22
2022-10-17T11:17:23.765Z,23.35
2022-10-17T11:20:53.579Z,22.85
2022-10-17T11:32:44.103Z,23.29
2022-10-17T11:40:48.333Z,23.20
2022-10-17T12:24:03.340Z,24.98
2022-10-17T12:51:37.437Z,25.56
2022-10-17T13:00:36.480Z,24.80
2022-10-17T13:33:27.938Z,26.37
2022-10-17T13:37:23.699Z,26.90
2022-10-17T14:16:25.244Z,26.12
2022-10-17T14:20:40.847Z,26.11
2022-10-17T14:23:48.240Z,26.05
2022-10-17T14:26:59.334Z,25.32
2022-10-17T14:32:05.943Z,25.49
2022-10-17T14:38:19.577Z,24.45
2022-10-17T14:41:44.151Z,23.40
2022-10-17T14:45:47.832Z,23.12
2022-10-17T14:49:27.023Z,22.73
2022-10-17T15:00:13.253Z,22.44
2022-10-17T15:06:39.567Z,22.46
2022-10-17T15:23:12.365Z,22.21
2022-10-17T15:27:45.345Z,22.40
2022-10-17T15:34:21.441Z,23.00
2022-10-17T15:37:24.508Z,23.49
2022-10-17T15:40:24.588Z,23.60
2022-10-17T15:43:15.024Z,23.23
2022-10-17T15:46:15.525Z,22.92
2022-10-17T15:49:12.463Z,22.54
2022-10-17T15:52:00.973Z,22.32
2022-10-17T15:54:49.656Z,22.29
2022-10-17T15:57:57.730Z,22.08
2022-10-17T16:00:49.369Z,21.88
2022-10-17T16:03:37.849Z,21.83
2022-10-17T16:06:27.532Z,21.66
2022-10-17T16:09:15.573Z,21.57
2022-10-17T16:12:06.540Z,21.44
2022-10-17T16:14:57.793Z,21.28
2022-10-17T16:17:46.344Z,21.15
2022-10-17T16:20:45.543Z,21.13
2022-10-17T16:23:34.325Z,21.31
2022-10-17T16:26:22.624Z,21.00
2022-10-17T16:29:10.952Z,20.81
2022-10-17T16:31:59.597Z,20.78
2022-10-17T16:34:51.291Z,20.82
2022-10-17T16:37:46.039Z,21.07
2022-10-17T16:40:42.694Z,21.08
2022-10-17T16:43:38.619Z,20.97
2022-10-17T16:46:29.835Z,20.98
2022-10-17T16:49:20.454Z,20.61
2022-10-17T16:52:09.194Z,20.35
2022-10-17T16:55:00.584Z,20.18
2022-10-17T16:57:49.431Z,20.06
2022-10-17T17:00:39.725Z,20.02
2022-10-17T17:03:27.878Z,19.87
2022-10-17T17:06:26.547Z,19.67
2022-10-17T17:09:14.954Z,19.60
2022-10-17T17:12:03.083Z,19.48
2022-10-17T17:14:51.166Z,19.41
2022-10-17T17:17:55.662Z,19.32
2022-10-17T17:20:44.994Z,19.43
2022-10-17T17:23:40.417Z,19.76
2022-10-17T17:26:31.271Z,19.93
2022-10-17T17:29:26.362Z,19.65
2022-10-17T17:32:22.861Z,19.48
2022-10-17T17:35:10.828Z,19.30
2022-10-17T17:37:58.709Z,19.38
2022-10-17T17:40:51.284Z,19.43
2022-10-17T17:43:39.973Z,19.37
2022-10-17T17:46:28.416Z,19.04
2022-10-17T17:49:18.777Z,19.06
2022-10-17T17:52:07.087Z,19.33
2022-10-17T17:54:55.358Z,19.43
2022-10-17T17:57:43.372Z,19.31
2022-10-17T18:00:32.268Z,19.15
2022-10-17T18:03:20.952Z,19.14
2022-10-17T18:06:09.958Z,19.02
2022-10-17T18:08:59.361Z,19.19
2022-10-17T18:11:47.597Z,18.88
2022-10-17T18:14:35.619Z,18.84
2022-10-17T18:17:23.933Z,19.06
2022-10-17T18:20:12.443Z,19.17
2022-10-17T18:23:06.174Z,18.75
2022-10-17T18:25:56.856Z,18.65
2022-10-17T18:28:51.049Z,19.00
2022-10-17T18:31:39.261Z,19.01
2022-10-17T18:34:27.628Z,18.98
2022-10-17T18:37:15.619Z,19.09
2022-10-17T18:40:03.847Z,18.89
2022-10-17T18:42:51.928Z,18.99
2022-10-17T18:45:43.533Z,18.70
2022-10-17T18:48:39.446Z,18.48
2022-10-17T18:51:28.321Z,18.69
2022-10-17T18:54:21.524Z,19.08
2022-10-17T18:57:09.625Z,19.39
2022-10-17T18:59:57.564Z,19.35
2022-10-17T19:02:45.550Z,19.18
2022-10-17T19:05:37.323Z,18.87
2022-10-17T19:08:25.597Z,18.63
2022-10-17T19:11:24.716Z,18.73
2022-10-17T19:14:13.757Z,18.59
2022-10-17T19:17:06.169Z,18.60
2022-10-17T19:19:55.505Z,18.81
2022-10-17T19:22:43.750Z,19.09
2022-10-17T19:25:33.650Z,19.27
2022-10-17T19:28:21.912Z,19.11
2022-10-17T19:31:15.322Z,19.00
2022-10-17T19:34:05.779Z,19.07
2022-10-17T19:36:54.078Z,19.10
2022-10-17T19:39:42.022Z,19.04
2022-10-17T19:42:31.031Z,19.00
2022-10-17T19:45:19.388Z,19.16
2022-10-17T19:48:08.424Z,18.93
2022-10-17T19:50:56.369Z,18.93
2022-10-17T19:53:45.434Z,18.77
2022-10-17T19:56:38.445Z,18.62
2022-10-17T19:59:26.752Z,18.61
2022-10-17T20:02:14.802Z,18.52
2022-10-17T20:05:18.038Z,18.48
2022-10-17T20:08:09.402Z,18.48
2022-10-17T20:10:57.680Z,18.50
2022-10-17T20:13:46.455Z,18.64
2022-10-17T20:16:36.752Z,18.63
2022-10-17T20:19:26.437Z,18.61
2022-10-17T20:22:16.758Z,18.65
2022-10-17T20:25:07.763Z,18.45
2022-10-17T20:27:59.524Z,18.02
2022-10-17T20:30:52.300Z,18.00
2022-10-17T20:33:45.712Z,17.68
2022-10-17T20:36:37.115Z,18.00
2022-10-17T20:39:25.530Z,18.13
2022-10-17T20:42:13.554Z,18.26
2022-10-17T20:45:01.787Z,18.31
2022-10-17T20:47:54.044Z,18.33
2022-10-17T20:50:43.921Z,18.29
2022-10-17T20:53:37.113Z,18.16
2022-10-17T20:56:31.718Z,18.20
2022-10-17T20:59:19.971Z,18.18
2022-10-17T21:02:11.999Z,17.87
2022-10-17T21:04:59.934Z,18.08
2022-10-17T21:07:49.959Z,18.31
2022-10-17T21:10:37.898Z,18.36
2022-10-17T21:13:25.835Z,18.32
2022-10-17T21:16:21.503Z,18.57
2022-10-17T21:19:15.443Z,18.65
2022-10-17T21:22:03.947Z,18.21
2022-10-17T21:24:52.373Z,18.31
2022-10-17T21:27:40.536Z,18.46
2022-10-17T21:30:28.376Z,18.69
2022-10-17T21:33:16.514Z,18.88
2022-10-17T21:36:05.350Z,18.92
2022-10-17T21:38:57.065Z,19.04
2022-10-17T21:41:45.821Z,19.01
2022-10-17T21:44:36.203Z,18.60
2022-10-17T21:47:27.501Z,18.24
2022-10-17T21:50:15.736Z,18.26
2022-10-17T21:53:04.459Z,17.86
2022-10-17T21:55:52.388Z,17.13
2022-10-17T21:58:41.119Z,16.91
2022-10-17T22:01:39.532Z,16.97
2022-10-17T22:04:27.435Z,17.42
2022-10-17T22:07:15.351Z,17.87
2022-10-17T22:10:03.834Z,17.86
2022-10-17T22:12:51.894Z,17.67
2022-10-17T22:15:39.790Z,17.55
2022-10-17T22:18:31.578Z,17.41
2022-10-17T22:21:21.889Z,17.33
2022-10-17T22:24:14.255Z,17.48
2022-10-17T22:27:02.791Z,17.82
2022-10-17T22:29:50.700Z,18.02
2022-10-17T22:32:38.689Z,18.16
2022-10-17T22:35:26.731Z,18.30
2022-10-17T22:38:15.373Z,18.33
2022-10-17T22:41:04.367Z,18.23
2022-10-17T22:43:55.184Z,18.42
2022-10-17T22:46:46.389Z,18.51
2022-10-17T22:49:34.600Z,18.49
2022-10-17T22:52:23.547Z,18.61
2022-10-17T22:55:11.611Z,18.68
2022-10-17T22:57:59.562Z,18.81
2022-10-17T23:00:49.697Z,18.78
2022-10-17T23:03:37.708Z,18.57
2022-10-17T23:06:25.710Z,18.74
2022-10-17T23:09:14.146Z,18.69
2022-10-17T23:12:02.410Z,18.62
2022-10-17T23:14:50.427Z,18.55
2022-10-17T23:17:38.467Z,18.44
2022-10-17T23:20:27.554Z,18.29
2022-10-17T23:23:16.292Z,18.31
2022-10-17T23:26:10.010Z,18.29
2022-10-17T23:28:58.101Z,18.32
2022-10-17T23:31:46.199Z,18.24
2022-10-17T23:34:34.120Z,18.27
2022-10-17T23:37:22.299Z,18.46
2022-10-17T23:40:11.014Z,18.62
2022-10-17T23:42:59.001Z,18.71
2022-10-17T23:45:47.023Z,18.66
2022-10-17T23:48:35.421Z,18.81
2022-10-17T23:51:23.489Z,18.78
2022-10-17T23:54:11.440Z,18.77
2022-10-17T23:56:59.462Z,18.89
2022-10-17T23:59:47.344Z,18.70
